createdAt,value
2023-03-25T00:01:37.766Z,1.47
2023-03-25T00:04:05.931Z,1.60
2023-03-25T00:06:34.670Z,1.60
2023-03-25T00:09:03.915Z,1.60
2023-03-25T00:11:31.854Z,1.50
2023-03-25T00:14:01.058Z,1.50
2023-03-25T00:16:29.020Z,1.40
2023-03-25T00:18:59.887Z,1.80
2023-03-25T00:21:27.829Z,1.40
2023-03-25T00:23:56.196Z,1.60
2023-03-25T00:26:24.076Z,1.67
2023-03-25T00:28:53.941Z,1.30
2023-03-25T00:31:23.215Z,1.40
2023-03-25T00:33:51.597Z,1.50
2023-03-25T00:36:19.561Z,1.40
2023-03-25T00:38:50.424Z,1.53
2023-03-25T00:41:23.259Z,1.50
2023-03-25T00:43:52.169Z,1.27
2023-03-25T00:46:22.834Z,1.40
2023-03-25T00:48:52.501Z,1.50
2023-03-25T00:51:21.621Z,1.50
2023-03-25T00:53:49.770Z,1.13
2023-03-25T00:56:17.696Z,1.43
2023-03-25T00:58:45.703Z,1.33
2023-03-25T01:01:14.186Z,1.20
2023-03-25T01:03:46.671Z,1.27
2023-03-25T01:06:17.441Z,1.33
2023-03-25T01:08:47.171Z,1.17
2023-03-25T01:11:19.457Z,1.33
2023-03-25T01:13:50.093Z,1.00
2023-03-25T01:16:18.068Z,1.50
2023-03-25T01:18:46.139Z,1.30
2023-03-25T01:21:15.921Z,1.17
2023-03-25T01:23:45.496Z,1.30
2023-03-25T01:26:13.972Z,1.30
2023-03-25T01:28:42.038Z,1.23
2023-03-25T01:31:11.299Z,1.00
2023-03-25T01:33:39.477Z,1.20
2023-03-25T01:36:13.053Z,1.40
2023-03-25T01:38:41.148Z,1.20
2023-03-25T01:41:10.579Z,1.03
2023-03-25T01:43:38.570Z,1.20
2023-03-25T01:46:07.215Z,1.30
2023-03-25T01:48:36.873Z,1.17
2023-03-25T01:51:06.648Z,1.00
2023-03-25T01:53:36.296Z,1.17
2023-03-25T01:56:05.515Z,1.10
2023-03-25T01:58:34.976Z,1.30
2023-03-25T02:01:03.230Z,1.20
2023-03-25T02:03:36.995Z,1.10
2023-03-25T02:06:09.999Z,1.10
2023-03-25T02:08:41.464Z,1.00
2023-03-25T02:11:09.746Z,0.97
2023-03-25T02:13:39.769Z,1.20
2023-03-25T02:16:15.468Z,1.10
2023-03-25T02:18:47.434Z,1.10
2023-03-25T02:21:47.145Z,1.07
2023-03-25T02:24:43.331Z,1.10
2023-03-25T02:27:27.157Z,1.00
2023-03-25T02:30:26.515Z,0.90
2023-03-25T02:33:30.851Z,0.90
2023-03-25T02:36:12.220Z,1.10
2023-03-25T02:38:43.186Z,1.00
2023-03-25T02:41:14.914Z,1.00
2023-03-25T02:43:48.873Z,1.00
2023-03-25T02:46:17.842Z,0.90
2023-03-25T02:48:51.096Z,0.90
2023-03-25T02:51:21.527Z,1.10
2023-03-25T02:53:51.149Z,1.20
2023-03-25T02:56:22.216Z,0.87
2023-03-25T02:58:50.265Z,0.90
2023-03-25T03:01:18.178Z,0.90
2023-03-25T03:03:46.234Z,1.00
2023-03-25T03:06:16.949Z,0.90
2023-03-25T03:08:57.804Z,0.90
2023-03-25T03:11:27.248Z,0.90
2023-03-25T03:14:06.486Z,0.90
2023-03-25T03:16:37.623Z,1.00
2023-03-25T03:19:11.642Z,1.00
2023-03-25T03:21:41.199Z,1.00
2023-03-25T03:24:13.735Z,0.83
2023-03-25T03:26:43.350Z,1.00
2023-03-25T03:29:12.874Z,0.87
2023-03-25T03:31:48.342Z,0.93
2023-03-25T03:34:34.394Z,0.80
2023-03-25T03:37:02.296Z,1.10
2023-03-25T03:39:32.770Z,1.00
2023-03-25T03:42:02.545Z,1.00
2023-03-25T03:44:31.606Z,0.90
2023-03-25T03:47:00.546Z,1.00
2023-03-25T03:49:29.959Z,0.90
2023-03-25T03:51:59.459Z,1.00
2023-03-25T03:54:28.639Z,0.83
2023-03-25T03:57:01.771Z,0.80
2023-03-25T03:59:34.792Z,0.80
2023-03-25T04:02:04.240Z,1.20
2023-03-25T04:04:34.800Z,0.90
2023-03-25T04:07:04.397Z,0.90
2023-03-25T04:09:38.541Z,0.83
2023-03-25T04:12:12.007Z,0.90
2023-03-25T04:14:39.867Z,0.73
2023-03-25T04:17:07.728Z,0.80
2023-03-25T04:19:35.649Z,1.00
2023-03-25T04:22:03.738Z,1.00
2023-03-25T04:24:32.313Z,1.10
2023-03-25T04:27:04.342Z,0.80
2023-03-25T04:29:33.934Z,1.10
2023-03-25T04:32:02.161Z,0.80
2023-03-25T04:34:30.014Z,1.00
2023-03-25T04:36:58.810Z,0.70
2023-03-25T04:39:29.729Z,0.70
2023-03-25T04:41:57.656Z,0.80
2023-03-25T04:44:26.113Z,0.90
2023-03-25T04:46:56.056Z,0.70
2023-03-25T04:49:26.748Z,0.70
2023-03-25T04:51:55.706Z,0.87
2023-03-25T04:54:23.656Z,0.87
2023-03-25T04:56:51.948Z,0.80
2023-03-25T04:59:21.020Z,0.70
2023-03-25T05:01:49.132Z,0.73
2023-03-25T05:04:18.580Z,0.80
2023-03-25T05:06:47.416Z,0.77
2023-03-25T05:09:16.798Z,0.90
2023-03-25T05:11:47.640Z,0.90
2023-03-25T05:14:16.583Z,0.80
2023-03-25T05:16:44.983Z,0.83
2023-03-25T05:19:12.965Z,0.90
2023-03-25T05:21:42.413Z,0.80
2023-03-25T05:24:11.223Z,0.73
2023-03-25T05:26:39.693Z,1.00
2023-03-25T05:29:09.255Z,0.80
2023-03-25T05:31:37.486Z,0.60
2023-03-25T05:34:08.647Z,0.70
2023-03-25T05:36:36.582Z,0.70
2023-03-25T05:39:05.989Z,0.87
2023-03-25T05:41:38.738Z,0.97
2023-03-25T05:44:07.176Z,0.73
2023-03-25T05:46:35.165Z,0.83
2023-03-25T05:49:03.146Z,0.70
2023-03-25T05:51:33.652Z,0.90
2023-03-25T05:54:02.077Z,0.60
2023-03-25T05:56:31.398Z,0.73
2023-03-25T05:58:59.338Z,0.77
2023-03-25T06:01:33.306Z,0.87
2023-03-25T06:04:02.364Z,0.70
2023-03-25T06:06:31.936Z,0.90
2023-03-25T06:09:00.177Z,0.90
2023-03-25T06:11:28.085Z,0.80
2023-03-25T06:14:00.387Z,1.03
2023-03-25T06:16:30.374Z,0.83
2023-03-25T06:19:00.111Z,0.83
2023-03-25T06:21:28.598Z,0.80
2023-03-25T06:23:56.601Z,0.90
2023-03-25T06:26:24.619Z,0.80
2023-03-25T06:28:52.576Z,0.70
2023-03-25T06:31:26.372Z,0.90
2023-03-25T06:33:54.680Z,0.60
2023-03-25T06:36:22.646Z,0.70
2023-03-25T06:38:54.051Z,0.70
2023-03-25T06:41:25.046Z,0.60
2023-03-25T06:44:11.820Z,1.07
2023-03-25T06:47:02.545Z,0.80
2023-03-25T06:49:35.168Z,1.07
2023-03-25T06:52:06.324Z,0.90
2023-03-25T06:54:34.202Z,0.90
2023-03-25T06:57:02.184Z,0.90
2023-03-25T06:59:30.356Z,1.00
2023-03-25T07:01:58.395Z,0.70
2023-03-25T07:04:27.769Z,0.70
2023-03-25T07:06:57.737Z,0.80
2023-03-25T07:09:25.980Z,0.90
2023-03-25T07:11:53.901Z,0.97
2023-03-25T07:14:21.821Z,0.97
2023-03-25T07:16:50.293Z,0.80
2023-03-25T07:19:18.277Z,0.80
2023-03-25T07:21:47.624Z,1.00
2023-03-25T07:24:15.715Z,0.90
2023-03-25T07:26:43.588Z,1.20
2023-03-25T07:29:13.472Z,0.90
2023-03-25T07:31:41.707Z,0.80
2023-03-25T07:34:09.735Z,0.80
2023-03-25T07:36:37.706Z,0.80
2023-03-25T07:39:07.803Z,0.87
2023-03-25T07:41:35.757Z,0.80
2023-03-25T07:44:27.671Z,0.70
2023-03-25T07:46:55.743Z,1.10
2023-03-25T07:49:23.692Z,0.80
2023-03-25T07:51:51.630Z,0.80
2023-03-25T07:54:22.349Z,0.70
2023-03-25T07:56:50.886Z,0.70
2023-03-25T07:59:18.803Z,0.90
2023-03-25T08:01:46.737Z,1.00
2023-03-25T08:04:16.571Z,0.80
2023-03-25T08:06:44.518Z,0.70
2023-03-25T08:09:12.614Z,0.90
2023-03-25T08:11:41.910Z,0.60
2023-03-25T08:14:09.862Z,0.80
2023-03-25T08:16:37.840Z,0.97
2023-03-25T08:19:05.732Z,0.87
2023-03-25T08:21:33.624Z,0.60
2023-03-25T08:24:04.616Z,0.80
2023-03-25T08:26:33.548Z,0.80
2023-03-25T08:29:07.586Z,0.90
2023-03-25T08:31:38.626Z,0.70
2023-03-25T08:34:07.187Z,0.77
2023-03-25T08:36:39.180Z,0.80
2023-03-25T08:39:11.782Z,1.10
2023-03-25T08:41:42.317Z,0.70
2023-03-25T08:44:11.717Z,0.80
2023-03-25T08:46:39.729Z,0.73
2023-03-25T08:49:07.701Z,0.77
2023-03-25T08:51:35.761Z,0.70
2023-03-25T08:54:03.653Z,1.73
2023-03-25T08:56:31.616Z,2.30
2023-03-25T08:58:59.552Z,0.87
2023-03-25T09:01:29.320Z,0.80
2023-03-25T09:03:57.782Z,0.90
2023-03-25T09:06:26.102Z,1.63
2023-03-25T09:08:55.881Z,1.53
2023-03-25T09:11:33.978Z,1.07
2023-03-25T09:14:04.892Z,0.67
2023-03-25T09:16:34.408Z,0.70
2023-03-25T09:19:02.465Z,1.00
2023-03-25T09:21:30.396Z,0.93
2023-03-25T09:23:58.364Z,0.80
2023-03-25T09:26:26.371Z,1.00
2023-03-25T09:28:55.547Z,0.70
2023-03-25T09:31:23.679Z,1.00
2023-03-25T09:33:53.058Z,0.80
2023-03-25T09:36:21.264Z,0.60
2023-03-25T09:38:49.190Z,0.80
2023-03-25T09:41:42.076Z,1.03
2023-03-25T09:44:18.029Z,0.60
2023-03-25T09:46:45.994Z,0.90
2023-03-25T09:49:17.255Z,0.70
2023-03-25T09:51:45.204Z,1.00
2023-03-25T09:54:18.468Z,0.90
2023-03-25T09:56:48.522Z,0.80
2023-03-25T09:59:17.850Z,0.90
2023-03-25T10:01:48.092Z,0.80
2023-03-25T10:04:42.001Z,0.70
2023-03-25T10:07:14.636Z,1.10
2023-03-25T10:09:49.406Z,0.80
2023-03-25T10:12:27.784Z,1.10
2023-03-25T10:15:02.776Z,1.00
2023-03-25T10:17:34.749Z,0.80
2023-03-25T10:20:07.286Z,1.10
2023-03-25T10:22:37.588Z,0.77
2023-03-25T10:25:06.433Z,0.80
2023-03-25T10:27:35.721Z,0.80
2023-03-25T10:30:06.310Z,0.87
2023-03-25T10:32:38.457Z,1.53
2023-03-25T10:35:11.489Z,0.90
2023-03-25T10:37:43.170Z,0.80
2023-03-25T10:40:21.781Z,0.90
2023-03-25T10:42:57.224Z,1.00
2023-03-25T10:45:25.591Z,0.80
2023-03-25T10:47:53.987Z,0.80
2023-03-25T10:50:23.377Z,0.80
2023-03-25T10:52:52.502Z,0.90
2023-03-25T10:55:25.238Z,0.80
2023-03-25T10:57:53.431Z,0.80
2023-03-25T11:00:23.236Z,0.70
2023-03-25T11:02:55.047Z,0.67
2023-03-25T11:05:25.592Z,1.00
2023-03-25T11:07:55.127Z,0.90
2023-03-25T11:10:24.459Z,1.10
2023-03-25T11:12:52.845Z,0.80
2023-03-25T11:15:22.556Z,1.00
2023-03-25T11:17:57.888Z,0.90
2023-03-25T11:20:29.989Z,0.90
2023-03-25T11:23:03.042Z,0.93
2023-03-25T11:25:32.141Z,0.93
2023-03-25T11:28:01.056Z,1.57
2023-03-25T11:30:28.952Z,1.67
2023-03-25T11:33:02.238Z,1.03
2023-03-25T11:35:32.458Z,6.17
2023-03-25T11:38:01.189Z,1.00
2023-03-25T11:40:29.816Z,1.00
2023-03-25T11:42:58.415Z,1.00
2023-03-25T11:45:30.684Z,0.73
2023-03-25T11:47:59.321Z,1.00
2023-03-25T11:50:29.646Z,0.83
2023-03-25T11:53:02.942Z,0.90
2023-03-25T11:55:31.509Z,1.00
2023-03-25T11:58:01.987Z,1.20
2023-03-25T12:00:35.835Z,0.80
2023-03-25T12:03:04.672Z,0.90
2023-03-25T12:05:32.798Z,0.90
2023-03-25T12:08:17.315Z,0.97
2023-03-25T12:10:50.759Z,1.07
2023-03-25T12:13:23.788Z,0.90
2023-03-25T12:15:55.732Z,0.83
2023-03-25T12:18:35.900Z,0.80
2023-03-25T12:21:07.576Z,0.93
2023-03-25T12:23:40.523Z,1.00
2023-03-25T12:26:11.038Z,0.80
2023-03-25T12:28:53.198Z,1.10
2023-03-25T12:31:26.998Z,0.80
2023-03-25T12:34:00.296Z,1.00
2023-03-25T12:36:35.271Z,0.83
2023-03-25T12:39:11.356Z,0.97
2023-03-25T12:41:41.041Z,1.50
2023-03-25T12:44:09.778Z,0.90
2023-03-25T12:46:52.174Z,1.40
2023-03-25T12:49:37.399Z,0.93
2023-03-25T12:52:07.789Z,1.03
2023-03-25T12:54:45.514Z,1.10
2023-03-25T12:57:21.276Z,1.43
2023-03-25T13:00:14.945Z,0.80
2023-03-25T13:03:13.431Z,1.10
2023-03-25T13:05:42.724Z,1.00
2023-03-25T13:08:13.328Z,0.70
2023-03-25T13:10:42.875Z,1.00
2023-03-25T13:13:12.094Z,1.10
2023-03-25T13:15:41.756Z,1.10
2023-03-25T13:18:12.031Z,1.23
2023-03-25T13:20:42.536Z,1.00
2023-03-25T13:23:13.148Z,1.03
2023-03-25T13:25:47.829Z,1.20
2023-03-25T13:28:22.916Z,1.20
2023-03-25T13:30:51.119Z,1.10
2023-03-25T13:33:21.897Z,1.10
2023-03-25T13:35:51.476Z,1.10
2023-03-25T13:38:23.005Z,1.10
2023-03-25T13:40:55.116Z,1.00
2023-03-25T13:43:26.359Z,1.00
2023-03-25T13:45:57.642Z,1.20
2023-03-25T13:48:28.655Z,2.60
2023-03-25T13:50:57.016Z,2.47
2023-03-25T13:53:28.709Z,1.30
2023-03-25T13:56:21.943Z,1.20
2023-03-25T13:59:05.653Z,1.23
2023-03-25T14:01:40.630Z,1.20
2023-03-25T14:04:30.250Z,1.70
2023-03-25T14:07:19.609Z,1.30
2023-03-25T14:10:09.605Z,2.77
2023-03-25T14:12:39.671Z,1.27
2023-03-25T14:15:09.439Z,1.40
2023-03-25T14:17:37.335Z,1.93
2023-03-25T14:20:10.434Z,2.10
2023-03-25T14:22:44.028Z,1.33
2023-03-25T14:25:20.303Z,1.43
2023-03-25T14:27:51.261Z,1.90
2023-03-25T14:30:21.598Z,1.87
2023-03-25T14:32:49.737Z,1.63
2023-03-25T14:35:49.893Z,2.97
2023-03-25T14:38:50.579Z,1.20
2023-03-25T14:41:18.531Z,1.63
2023-03-25T14:43:53.030Z,1.30
2023-03-25T14:46:23.934Z,1.40
2023-03-25T14:48:52.761Z,1.50
2023-03-25T14:51:39.729Z,1.53
2023-03-25T14:54:19.442Z,2.57
2023-03-25T14:56:53.281Z,1.00
2023-03-25T14:59:26.386Z,1.37
2023-03-25T15:01:55.291Z,1.30
2023-03-25T15:04:28.879Z,1.33
2023-03-25T15:06:58.515Z,1.17
2023-03-25T15:09:28.753Z,2.63
2023-03-25T15:11:59.906Z,1.27
2023-03-25T15:14:31.511Z,2.50
2023-03-25T15:17:01.700Z,1.33
2023-03-25T15:19:29.678Z,1.20
2023-03-25T15:22:20.839Z,1.27
2023-03-25T15:24:50.900Z,1.23
2023-03-25T15:27:26.516Z,1.87
2023-03-25T15:30:00.654Z,0.90
2023-03-25T15:32:42.791Z,2.00
2023-03-25T15:35:32.855Z,1.17
2023-03-25T15:38:20.969Z,1.20
2023-03-25T15:40:58.666Z,1.10
2023-03-25T15:44:00.154Z,1.27
2023-03-25T15:46:47.907Z,1.30
2023-03-25T15:49:34.146Z,1.10
2023-03-25T15:52:09.128Z,1.27
2023-03-25T16:00:16.870Z,1.37
2023-03-25T16:02:49.547Z,1.10
2023-03-25T16:05:17.646Z,1.33
2023-03-25T16:07:46.016Z,1.10
2023-03-25T16:10:16.364Z,1.17
2023-03-25T16:12:44.869Z,1.40
2023-03-25T16:15:15.438Z,1.33
2023-03-25T16:17:47.421Z,1.23
2023-03-25T16:20:18.143Z,0.87
2023-03-25T16:22:49.093Z,1.37
2023-03-25T16:25:19.526Z,1.27
2023-03-25T16:27:48.347Z,1.40
2023-03-25T16:30:21.940Z,1.10
2023-03-25T16:32:52.254Z,1.10
2023-03-25T16:35:24.622Z,1.53
2023-03-25T16:37:56.111Z,1.20
2023-03-25T16:40:27.767Z,1.07
2023-03-25T16:42:55.828Z,1.13
2023-03-25T16:45:23.761Z,1.00
2023-03-25T16:47:53.159Z,1.37
2023-03-25T16:50:21.156Z,1.17
2023-03-25T16:52:49.052Z,1.10
2023-03-25T16:55:33.415Z,1.10
2023-03-25T16:58:02.169Z,1.90
2023-03-25T17:00:39.049Z,3.67
2023-03-25T17:03:17.280Z,1.30
2023-03-25T17:05:57.035Z,1.07
2023-03-25T17:08:25.136Z,1.53
2023-03-25T17:10:54.008Z,2.60
2023-03-25T17:13:27.064Z,1.50
2023-03-25T17:15:56.403Z,1.10
2023-03-25T17:18:28.690Z,1.17
2023-03-25T17:20:58.041Z,1.30
2023-03-25T17:23:30.087Z,1.37
2023-03-25T17:25:58.908Z,1.43
2023-03-25T17:28:29.615Z,1.30
2023-03-25T17:30:57.589Z,1.50
2023-03-25T17:33:39.458Z,1.97
2023-03-25T17:36:12.528Z,2.30
2023-03-25T17:38:44.899Z,2.60
2023-03-25T17:41:13.377Z,3.70
2023-03-25T17:43:42.956Z,4.77
2023-03-25T17:46:11.131Z,3.50
2023-03-25T17:48:40.786Z,5.23
2023-03-25T17:51:09.218Z,5.30
2023-03-25T17:53:37.088Z,8.40
2023-03-25T17:56:06.017Z,3.20
2023-03-25T17:58:34.129Z,2.70
2023-03-25T18:01:02.537Z,3.30
2023-03-25T18:03:32.014Z,3.10
2023-03-25T18:06:01.344Z,4.93
2023-03-25T18:08:29.415Z,4.57
2023-03-25T18:10:57.447Z,5.83
2023-03-25T18:13:25.673Z,4.20
2023-03-25T18:15:53.716Z,3.20
2023-03-25T18:18:24.124Z,3.67
2023-03-25T18:20:52.405Z,2.97
2023-03-25T18:23:21.854Z,3.87
2023-03-25T18:25:52.465Z,3.27
2023-03-25T18:28:20.448Z,3.27
2023-03-25T18:30:51.026Z,3.00
2023-03-25T18:33:19.195Z,3.07
2023-03-25T18:35:49.291Z,4.40
2023-03-25T18:38:19.066Z,4.07
2023-03-25T18:40:48.439Z,3.03
2023-03-25T18:43:17.144Z,3.10
2023-03-25T18:45:45.903Z,3.03
2023-03-25T18:48:14.011Z,2.80
2023-03-25T18:50:46.208Z,3.03
2023-03-25T18:53:15.271Z,3.20
2023-03-25T18:55:45.838Z,3.30
2023-03-25T18:58:17.418Z,2.70
2023-03-25T19:00:46.221Z,3.03
2023-03-25T19:03:14.515Z,2.93
2023-03-25T19:05:42.963Z,2.30
2023-03-25T19:08:15.187Z,2.80
2023-03-25T19:10:43.096Z,2.40
2023-03-25T19:13:11.013Z,2.33
2023-03-25T19:15:40.484Z,2.60
2023-03-25T19:18:08.427Z,2.67
2023-03-25T19:20:37.222Z,2.57
2023-03-25T19:23:05.549Z,2.80
2023-03-25T19:25:33.517Z,2.87
2023-03-25T19:28:01.446Z,2.20
2023-03-25T19:30:31.823Z,2.40
2023-03-25T19:33:02.144Z,2.50
2023-03-25T19:35:30.278Z,2.83
2023-03-25T19:37:58.288Z,2.87
2023-03-25T19:40:28.107Z,2.50
2023-03-25T19:43:04.219Z,2.87
2023-03-25T19:45:32.377Z,2.30
2023-03-25T19:48:01.737Z,2.57
2023-03-25T19:50:31.129Z,2.17
2023-03-25T19:52:59.688Z,2.50
2023-03-25T19:55:28.089Z,2.67
2023-03-25T19:57:56.168Z,2.60
2023-03-25T20:00:26.418Z,2.53
2023-03-25T20:02:55.863Z,2.43
2023-03-25T20:05:27.232Z,2.57
2023-03-25T20:07:56.046Z,2.50
2023-03-25T20:10:25.733Z,2.30
2023-03-25T20:12:53.948Z,3.00
2023-03-25T20:15:22.183Z,2.50
2023-03-25T20:17:50.725Z,2.20
2023-03-25T20:20:19.234Z,2.33
2023-03-25T20:22:48.678Z,2.30
2023-03-25T20:25:16.686Z,2.83
2023-03-25T20:27:44.729Z,2.20
2023-03-25T20:30:14.272Z,2.20
2023-03-25T20:32:43.733Z,2.43
2023-03-25T20:35:13.989Z,2.30
2023-03-25T20:37:45.550Z,2.33
2023-03-25T20:40:17.073Z,2.17
2023-03-25T20:42:45.769Z,2.27
2023-03-25T20:45:14.628Z,2.27
2023-03-25T20:47:42.586Z,2.00
2023-03-25T20:50:11.045Z,2.30
2023-03-25T20:52:39.024Z,2.40
2023-03-25T20:55:09.662Z,2.13
2023-03-25T20:57:40.950Z,2.50
2023-03-25T21:00:09.912Z,2.33
2023-03-25T21:02:39.934Z,2.00
2023-03-25T21:05:08.804Z,2.07
2023-03-25T21:07:36.774Z,2.00
2023-03-25T21:10:04.888Z,2.30
2023-03-25T21:12:43.217Z,2.37
2023-03-25T21:15:14.710Z,2.43
2023-03-25T21:17:43.097Z,2.10
2023-03-25T21:20:11.918Z,1.73
2023-03-25T21:22:42.691Z,1.70
2023-03-25T21:25:11.047Z,2.40
2023-03-25T21:27:42.246Z,2.10
2023-03-25T21:30:11.280Z,2.37
2023-03-25T21:32:40.639Z,2.17
2023-03-25T21:35:09.605Z,1.87
2023-03-25T21:37:39.295Z,1.90
2023-03-25T21:40:10.809Z,2.20
2023-03-25T21:42:39.395Z,1.93
2023-03-25T21:45:08.516Z,2.23
2023-03-25T21:47:36.633Z,2.13
2023-03-25T21:50:10.691Z,2.03
2023-03-25T21:52:38.761Z,2.30
2023-03-25T21:55:07.901Z,2.00
2023-03-25T21:57:39.958Z,1.87
2023-03-25T22:00:09.196Z,2.20
2023-03-25T22:02:43.810Z,2.00
2023-03-25T22:05:14.172Z,1.90
2023-03-25T22:07:43.759Z,2.13
2023-03-25T22:10:18.680Z,1.83
2023-03-25T22:12:47.625Z,1.90
2023-03-25T22:15:16.008Z,2.00
2023-03-25T22:17:44.974Z,1.80
2023-03-25T22:20:17.170Z,1.70
2023-03-25T22:22:45.651Z,1.70
2023-03-25T22:25:13.803Z,2.13
2023-03-25T22:27:41.774Z,2.03
2023-03-25T22:30:11.185Z,1.60
2023-03-25T22:32:39.155Z,1.63
2023-03-25T22:35:08.792Z,1.70
2023-03-25T22:37:38.127Z,2.10
2023-03-25T22:40:08.603Z,2.00
2023-03-25T22:42:36.572Z,1.90
2023-03-25T22:45:05.445Z,1.80
2023-03-25T22:47:33.459Z,2.00
2023-03-25T22:50:01.354Z,1.63
2023-03-25T22:52:29.309Z,1.90
2023-03-25T22:54:58.655Z,1.90
2023-03-25T22:57:26.650Z,2.07
2023-03-25T22:59:54.568Z,1.67
2023-03-25T23:02:22.536Z,1.77
2023-03-25T23:04:50.834Z,2.00
2023-03-25T23:07:18.760Z,1.83
2023-03-25T23:09:47.545Z,1.70
2023-03-25T23:12:21.143Z,1.60
2023-03-25T23:14:50.415Z,1.63
2023-03-25T23:17:18.463Z,1.57
2023-03-25T23:19:47.191Z,1.80
2023-03-25T23:22:16.479Z,1.80
2023-03-25T23:24:44.495Z,1.93
2023-03-25T23:27:12.919Z,1.93
2023-03-25T23:29:42.597Z,1.80
2023-03-25T23:32:10.726Z,1.50
2023-03-25T23:34:40.029Z,1.73
2023-03-25T23:37:09.146Z,1.90
2023-03-25T23:39:37.354Z,1.63
2023-03-25T23:42:05.435Z,1.60
2023-03-25T23:44:34.301Z,1.77
2023-03-25T23:47:03.779Z,1.73
2023-03-25T23:49:33.992Z,1.53
2023-03-25T23:52:02.087Z,1.50
2023-03-25T23:54:29.992Z,1.50
2023-03-25T23:56:58.189Z,1.77
2023-03-25T23:59:26.259Z,2.10
